createdAt,value
2022-11-27T00:02:12.948Z,12.45
2022-11-27T00:04:41.526Z,10.50
2022-11-27T00:07:09.953Z,9.63
2022-11-27T00:09:38.839Z,11.40
2022-11-27T00:12:09.885Z,9.20
2022-11-27T00:14:40.646Z,11.85
2022-11-27T00:17:09.041Z,11.15
2022-11-27T00:19:37.707Z,9.88
2022-11-27T00:22:06.256Z,10.85
2022-11-27T00:24:34.807Z,8.40
2022-11-27T00:27:03.101Z,9.50
2022-11-27T00:29:34.051Z,7.95
2022-11-27T00:32:07.435Z,11.07
2022-11-27T00:34:36.120Z,11.43
2022-11-27T00:37:06.398Z,8.30
2022-11-27T00:39:37.870Z,13.75
2022-11-27T00:42:06.193Z,10.75
2022-11-27T00:44:40.849Z,9.35
2022-11-27T00:47:09.336Z,7.97
2022-11-27T00:49:39.943Z,8.98
2022-11-27T00:52:17.285Z,10.93
2022-11-27T00:54:48.591Z,8.80
2022-11-27T00:57:21.597Z,6.80
2022-11-27T00:59:50.610Z,8.50
2022-11-27T01:02:19.245Z,9.88
2022-11-27T01:04:48.938Z,10.38
2022-11-27T01:07:17.655Z,11.40
2022-11-27T01:09:46.032Z,9.00
2022-11-27T01:12:16.953Z,8.82
2022-11-27T01:14:45.731Z,7.45
2022-11-27T01:17:13.988Z,8.18
2022-11-27T01:19:42.345Z,8.43
2022-11-27T01:22:10.631Z,9.13
2022-11-27T01:24:39.193Z,11.80
2022-11-27T01:27:07.750Z,10.27
2022-11-27T01:29:36.016Z,7.82
2022-11-27T01:32:08.668Z,10.25
2022-11-27T01:34:39.729Z,9.30
2022-11-27T01:37:08.265Z,9.85
2022-11-27T01:39:36.541Z,9.77
2022-11-27T01:42:07.936Z,9.20
2022-11-27T01:44:38.598Z,9.05
2022-11-27T01:47:14.571Z,11.65
2022-11-27T01:49:49.790Z,8.90
2022-11-27T01:52:34.276Z,12.02
2022-11-27T01:55:36.763Z,10.15
2022-11-27T01:58:21.141Z,10.50
2022-11-27T02:00:51.940Z,8.95
2022-11-27T02:03:20.524Z,10.38
2022-11-27T02:05:49.001Z,9.27
2022-11-27T02:08:19.018Z,7.85
2022-11-27T02:10:52.554Z,10.20
2022-11-27T02:13:58.985Z,10.50
2022-11-27T02:16:46.031Z,13.38
2022-11-27T02:19:26.218Z,17.58
2022-11-27T02:22:46.787Z,16.80
2022-11-27T02:25:28.153Z,16.17
2022-11-27T02:28:23.793Z,16.52
2022-11-27T02:31:00.335Z,18.13
2022-11-27T02:33:33.707Z,20.08
2022-11-27T02:36:16.691Z,15.48
2022-11-27T02:38:57.236Z,15.50
2022-11-27T02:41:31.630Z,15.90
2022-11-27T02:44:07.624Z,12.30
2022-11-27T02:46:37.067Z,15.35
2022-11-27T02:49:12.564Z,12.80
2022-11-27T02:51:50.505Z,14.05
2022-11-27T02:54:30.446Z,13.32
2022-11-27T02:57:05.340Z,12.90
2022-11-27T02:59:43.776Z,13.32
2022-11-27T03:02:18.436Z,12.98
2022-11-27T03:07:44.952Z,11.27
2022-11-27T03:10:25.710Z,13.18
2022-11-27T03:12:54.181Z,12.43
2022-11-27T03:15:25.553Z,10.35
2022-11-27T03:18:06.514Z,11.52
2022-11-27T03:20:42.774Z,12.63
2022-11-27T03:23:11.151Z,13.68
2022-11-27T03:25:39.476Z,11.48
2022-11-27T03:28:13.499Z,11.02
2022-11-27T03:30:43.031Z,12.80
2022-11-27T03:33:14.466Z,10.75
2022-11-27T03:35:45.211Z,13.38
2022-11-27T03:38:13.651Z,12.93
2022-11-27T03:40:54.977Z,12.20
2022-11-27T03:43:32.556Z,14.75
2022-11-27T03:46:08.964Z,11.73
2022-11-27T03:48:45.189Z,12.32
2022-11-27T03:51:33.257Z,16.17
2022-11-27T03:54:06.191Z,17.90
2022-11-27T03:56:39.885Z,17.50
2022-11-27T03:59:21.221Z,15.67
2022-11-27T04:01:52.923Z,15.10
2022-11-27T04:04:30.827Z,16.23
2022-11-27T04:06:59.157Z,13.80
2022-11-27T04:09:27.949Z,16.63
2022-11-27T04:12:07.953Z,15.07
2022-11-27T04:14:39.492Z,13.93
2022-11-27T04:17:13.021Z,14.05
2022-11-27T04:19:43.947Z,17.58
2022-11-27T04:22:16.520Z,15.10
2022-11-27T04:24:50.388Z,18.40
2022-11-27T04:27:28.427Z,16.08
2022-11-27T04:30:09.917Z,18.75
2022-11-27T04:32:38.191Z,15.48
2022-11-27T04:35:14.911Z,12.82
2022-11-27T04:37:46.178Z,16.10
2022-11-27T04:40:22.327Z,15.10
2022-11-27T04:42:53.874Z,14.45
2022-11-27T04:45:27.735Z,14.27
2022-11-27T04:47:56.008Z,15.95
2022-11-27T04:50:25.810Z,13.07
2022-11-27T04:52:54.186Z,13.77
2022-11-27T04:55:22.776Z,14.70
2022-11-27T04:57:53.382Z,15.23
2022-11-27T05:00:27.684Z,15.60
2022-11-27T05:02:56.113Z,14.82
2022-11-27T05:05:26.973Z,14.95
2022-11-27T05:07:57.751Z,17.40
2022-11-27T05:10:28.524Z,13.70
2022-11-27T05:13:02.376Z,15.55
2022-11-27T05:15:33.546Z,15.80
2022-11-27T05:18:06.799Z,15.52
2022-11-27T05:20:37.346Z,15.23
2022-11-27T05:23:05.586Z,16.40
2022-11-27T05:25:44.686Z,14.25
2022-11-27T05:28:13.024Z,15.60
2022-11-27T05:30:41.327Z,16.05
2022-11-27T05:33:14.658Z,14.48
2022-11-27T05:35:48.421Z,15.45
2022-11-27T05:38:18.496Z,14.53
2022-11-27T05:40:52.425Z,15.25
2022-11-27T05:43:26.255Z,14.80
2022-11-27T05:46:03.278Z,16.50
2022-11-27T05:48:37.847Z,13.70
2022-11-27T05:51:11.967Z,15.13
2022-11-27T05:53:43.334Z,14.23
2022-11-27T05:56:21.555Z,12.80
2022-11-27T05:58:52.400Z,13.32
2022-11-27T06:01:26.025Z,16.08
2022-11-27T06:04:01.928Z,14.45
2022-11-27T06:06:30.285Z,15.82
2022-11-27T06:09:01.714Z,12.52
2022-11-27T06:11:33.892Z,13.27
2022-11-27T06:14:02.221Z,14.57
2022-11-27T06:16:38.184Z,17.58
2022-11-27T06:19:08.873Z,15.27
2022-11-27T06:21:37.167Z,12.68
2022-11-27T06:24:13.281Z,17.42
2022-11-27T06:26:43.329Z,14.18
2022-11-27T06:29:12.115Z,14.10
2022-11-27T06:31:43.181Z,13.93
2022-11-27T06:34:15.395Z,11.70
2022-11-27T06:36:43.705Z,14.40
2022-11-27T06:39:15.275Z,15.25
2022-11-27T06:41:45.890Z,14.05
2022-11-27T06:44:24.582Z,13.55
2022-11-27T06:46:57.767Z,13.25
2022-11-27T06:49:28.350Z,13.77
2022-11-27T06:52:02.706Z,13.25
2022-11-27T06:54:36.291Z,14.13
2022-11-27T06:57:10.391Z,14.02
2022-11-27T06:59:44.776Z,13.82
2022-11-27T07:02:16.340Z,13.15
2022-11-27T07:04:47.145Z,14.05
2022-11-27T07:07:20.914Z,15.13
2022-11-27T07:09:52.366Z,16.50
2022-11-27T07:12:25.370Z,12.55
2022-11-27T07:15:04.019Z,14.85
2022-11-27T07:17:38.046Z,15.65
2022-11-27T07:20:06.990Z,15.20
2022-11-27T07:22:35.264Z,16.10
2022-11-27T07:25:03.500Z,14.65
2022-11-27T07:27:36.690Z,12.80
2022-11-27T07:30:11.505Z,13.77
2022-11-27T07:35:20.331Z,17.05
2022-11-27T07:37:53.531Z,14.00
2022-11-27T07:40:27.826Z,12.25
2022-11-27T07:43:01.088Z,13.93
2022-11-27T07:45:29.412Z,13.20
2022-11-27T07:48:00.710Z,14.70
2022-11-27T07:50:45.231Z,13.25
2022-11-27T07:53:16.060Z,13.82
2022-11-27T07:55:45.029Z,14.07
2022-11-27T07:58:23.462Z,13.48
2022-11-27T08:00:57.382Z,13.25
2022-11-27T08:03:33.078Z,14.10
2022-11-27T08:06:03.806Z,13.00
2022-11-27T08:08:32.735Z,12.80
2022-11-27T08:11:06.337Z,13.82
2022-11-27T08:13:36.350Z,15.02
2022-11-27T08:16:07.869Z,15.38
2022-11-27T08:18:36.221Z,12.38
2022-11-27T08:21:15.526Z,12.05
2022-11-27T08:23:49.398Z,10.77
2022-11-27T08:26:18.786Z,12.45
2022-11-27T08:28:57.127Z,11.63
2022-11-27T08:31:32.474Z,13.02
2022-11-27T08:34:07.432Z,13.68
2022-11-27T08:36:42.779Z,12.82
2022-11-27T08:39:22.220Z,14.40
2022-11-27T08:41:56.906Z,13.57
2022-11-27T08:44:25.230Z,14.57
2022-11-27T08:46:57.971Z,11.65
2022-11-27T08:49:29.891Z,11.57
2022-11-27T08:52:00.480Z,13.27
2022-11-27T08:54:36.905Z,12.43
2022-11-27T08:57:07.465Z,12.07
2022-11-27T08:59:39.731Z,13.48
2022-11-27T09:02:19.895Z,13.55
2022-11-27T09:04:55.315Z,14.05
2022-11-27T09:07:52.332Z,13.15
2022-11-27T09:10:22.222Z,13.63
2022-11-27T09:12:57.428Z,12.20
2022-11-27T09:15:26.305Z,13.25
2022-11-27T09:17:59.757Z,11.60
2022-11-27T09:20:38.985Z,10.50
2022-11-27T09:23:38.022Z,14.07
2022-11-27T09:26:09.517Z,10.45
2022-11-27T09:28:45.976Z,12.02
2022-11-27T09:31:28.804Z,12.60
2022-11-27T09:34:05.074Z,10.65
2022-11-27T09:36:43.446Z,10.77
2022-11-27T09:39:16.509Z,10.13
2022-11-27T09:42:11.811Z,11.13
2022-11-27T09:44:54.010Z,10.50
2022-11-27T09:48:02.874Z,10.43
2022-11-27T09:51:03.142Z,11.13
2022-11-27T09:54:02.982Z,11.48
2022-11-27T09:57:03.081Z,10.65
2022-11-27T10:00:02.076Z,10.25
2022-11-27T10:02:45.517Z,9.27
2022-11-27T10:05:28.131Z,12.02
2022-11-27T10:08:34.047Z,10.88
2022-11-27T10:11:20.069Z,11.73
2022-11-27T10:14:24.716Z,12.38
2022-11-27T10:17:16.826Z,11.07
2022-11-27T10:20:26.512Z,11.18
2022-11-27T10:23:31.216Z,10.73
2022-11-27T10:26:21.551Z,10.90
2022-11-27T10:29:17.016Z,11.68
2022-11-27T10:35:01.996Z,13.48
2022-11-27T10:40:56.028Z,11.30
2022-11-27T10:43:50.186Z,10.73
2022-11-27T10:46:41.070Z,8.55
2022-11-27T10:49:21.431Z,10.32
2022-11-27T10:51:52.771Z,12.00
2022-11-27T10:54:31.000Z,11.93
2022-11-27T10:57:45.335Z,11.75
2022-11-27T11:00:28.912Z,9.75
2022-11-27T11:03:09.063Z,10.40
2022-11-27T11:06:12.055Z,10.38
2022-11-27T11:09:06.070Z,12.32
2022-11-27T11:11:44.432Z,11.25
2022-11-27T11:14:29.026Z,11.02
2022-11-27T11:17:00.232Z,13.23
2022-11-27T11:19:54.845Z,10.65
2022-11-27T11:22:36.795Z,12.88
2022-11-27T11:25:29.257Z,11.93
2022-11-27T11:28:13.298Z,12.65
2022-11-27T11:30:55.662Z,12.30
2022-11-27T11:33:50.397Z,11.75
2022-11-27T11:36:26.551Z,9.57
2022-11-27T11:39:04.686Z,12.45
2022-11-27T11:41:46.354Z,10.88
2022-11-27T11:44:29.758Z,11.55
2022-11-27T11:47:20.553Z,11.85
2022-11-27T11:50:01.166Z,11.65
2022-11-27T11:53:07.653Z,12.32
2022-11-27T11:58:38.981Z,14.43
2022-11-27T12:01:31.071Z,11.18
2022-11-27T12:04:22.842Z,11.70
2022-11-27T12:07:37.318Z,11.55
2022-11-27T12:10:52.058Z,12.82
2022-11-27T12:14:00.727Z,11.75
2022-11-27T12:16:37.160Z,9.38
2022-11-27T12:20:06.407Z,9.40
2022-11-27T12:23:22.187Z,10.52
2022-11-27T12:26:16.072Z,11.10
2022-11-27T12:29:06.006Z,12.07
2022-11-27T12:32:06.754Z,11.73
2022-11-27T12:34:48.121Z,10.20
2022-11-27T12:37:49.166Z,10.27
2022-11-27T12:40:47.216Z,9.73
2022-11-27T12:43:31.635Z,9.20
2022-11-27T12:46:19.007Z,9.30
2022-11-27T12:49:32.493Z,10.23
2022-11-27T12:52:32.902Z,10.80
2022-11-27T12:55:37.972Z,10.80
2022-11-27T12:58:35.802Z,9.63
2022-11-27T13:01:26.573Z,12.13
2022-11-27T13:04:15.616Z,8.50
2022-11-27T13:07:48.128Z,9.27
2022-11-27T13:10:46.625Z,10.15
2022-11-27T13:17:12.936Z,10.63
2022-11-27T13:19:53.306Z,9.70
2022-11-27T13:22:38.746Z,10.20
2022-11-27T13:25:10.907Z,9.10
2022-11-27T13:27:46.029Z,10.77
2022-11-27T13:30:50.082Z,8.85
2022-11-27T13:33:47.626Z,9.00
2022-11-27T13:36:54.731Z,8.90
2022-11-27T13:40:07.502Z,7.75
2022-11-27T13:43:24.192Z,9.00
2022-11-27T13:45:57.110Z,7.75
2022-11-27T13:48:43.114Z,8.85
2022-11-27T13:51:45.107Z,8.55
2022-11-27T13:54:29.313Z,7.75
2022-11-27T13:57:21.227Z,7.28
2022-11-27T14:00:06.603Z,10.55
2022-11-27T14:02:53.926Z,7.95
2022-11-27T14:05:37.163Z,11.55
2022-11-27T14:08:27.564Z,9.95
2022-11-27T14:11:29.612Z,11.27
2022-11-27T14:14:01.979Z,10.70
2022-11-27T14:16:58.490Z,13.32
2022-11-27T14:19:44.931Z,14.20
2022-11-27T14:23:07.119Z,13.38
2022-11-27T14:26:14.638Z,13.75
2022-11-27T14:28:53.988Z,12.13
2022-11-27T14:31:44.326Z,13.40
2022-11-27T14:34:54.027Z,13.27
2022-11-27T14:37:35.911Z,10.45
2022-11-27T14:40:26.652Z,11.82
2022-11-27T14:46:26.329Z,8.82
2022-11-27T14:49:27.142Z,9.45
2022-11-27T14:52:05.364Z,9.27
2022-11-27T14:54:59.825Z,11.43
2022-11-27T14:57:38.212Z,9.60
2022-11-27T15:00:34.072Z,9.38
2022-11-27T15:03:13.103Z,9.30
2022-11-27T15:06:06.177Z,10.07
2022-11-27T15:09:29.847Z,9.02
2022-11-27T15:14:24.947Z,9.50
2022-11-27T15:17:14.759Z,8.68
2022-11-27T15:19:51.027Z,10.00
2022-11-27T15:25:49.982Z,11.27
2022-11-27T15:28:43.810Z,7.00
2022-11-27T15:37:38.236Z,8.40
2022-11-27T15:40:24.270Z,8.63
2022-11-27T15:46:33.392Z,8.98
2022-11-27T15:49:22.236Z,9.30
2022-11-27T15:52:01.832Z,9.65
2022-11-27T15:54:36.070Z,6.97
2022-11-27T15:57:21.523Z,6.95
2022-11-27T15:59:50.659Z,9.70
2022-11-27T16:02:23.469Z,8.52
2022-11-27T16:05:00.108Z,8.45
2022-11-27T16:07:38.493Z,7.88
2022-11-27T16:10:16.395Z,9.70
2022-11-27T16:12:55.434Z,8.68
2022-11-27T16:15:26.644Z,7.60
2022-11-27T16:18:05.582Z,7.78
2022-11-27T16:20:38.980Z,9.90
2022-11-27T16:26:18.758Z,8.32
2022-11-27T16:29:03.518Z,8.05
2022-11-27T16:31:45.485Z,8.52
2022-11-27T16:34:40.438Z,7.70
2022-11-27T16:37:20.514Z,10.05
2022-11-27T16:39:51.835Z,11.75
2022-11-27T16:42:39.381Z,8.20
2022-11-27T16:45:10.484Z,7.30
2022-11-27T16:47:43.465Z,9.05
2022-11-27T16:50:14.714Z,8.15
2022-11-27T16:52:54.552Z,7.47
2022-11-27T16:55:40.262Z,7.53
2022-11-27T16:58:28.232Z,8.48
2022-11-27T17:01:12.396Z,6.13
2022-11-27T17:03:51.430Z,6.43
2022-11-27T17:06:29.046Z,7.13
2022-11-27T17:09:05.907Z,8.07
2022-11-27T17:11:40.375Z,8.55
2022-11-27T17:14:12.648Z,8.65
2022-11-27T17:16:49.829Z,8.15
2022-11-27T17:19:24.778Z,6.65
2022-11-27T17:21:55.542Z,8.85
2022-11-27T17:24:28.836Z,8.80
2022-11-27T17:27:13.692Z,7.70
2022-11-27T17:29:44.875Z,8.73
2022-11-27T17:32:19.009Z,7.53
2022-11-27T17:34:52.517Z,7.03
2022-11-27T17:37:23.864Z,9.10
2022-11-27T17:40:03.007Z,8.52
2022-11-27T17:42:59.132Z,8.60
2022-11-27T17:45:30.678Z,10.00
2022-11-27T17:48:05.722Z,9.53
2022-11-27T17:50:33.987Z,7.50
2022-11-27T17:53:06.085Z,8.10
2022-11-27T17:55:41.992Z,10.20
2022-11-27T17:58:30.540Z,9.93
2022-11-27T18:01:02.805Z,8.40
2022-11-27T18:03:34.973Z,9.38
2022-11-27T18:06:19.231Z,8.07
2022-11-27T18:08:50.364Z,7.93
2022-11-27T18:11:28.836Z,6.68
2022-11-27T18:13:59.796Z,9.13
2022-11-27T18:16:42.115Z,7.50
2022-11-27T18:19:20.831Z,9.68
2022-11-27T18:21:53.914Z,9.05
2022-11-27T18:24:24.002Z,6.90
2022-11-27T18:27:14.046Z,8.00
2022-11-27T18:29:45.713Z,7.05
2022-11-27T18:32:22.287Z,7.72
2022-11-27T18:34:59.108Z,9.18
2022-11-27T18:37:27.463Z,7.47
2022-11-27T18:39:58.097Z,6.20
2022-11-27T18:42:28.311Z,7.47
2022-11-27T18:44:58.792Z,5.88
2022-11-27T18:47:30.470Z,4.82
2022-11-27T18:50:02.045Z,5.60
2022-11-27T18:52:37.281Z,5.95
2022-11-27T18:55:09.961Z,8.85
2022-11-27T18:57:40.898Z,6.72
2022-11-27T19:00:15.010Z,5.93
2022-11-27T19:02:46.229Z,7.55
2022-11-27T19:05:22.576Z,6.53
2022-11-27T19:07:50.951Z,8.70
2022-11-27T19:10:31.116Z,7.65
2022-11-27T19:13:05.327Z,6.80
2022-11-27T19:15:43.661Z,8.52
2022-11-27T19:18:14.676Z,9.70
2022-11-27T19:20:45.807Z,8.05
2022-11-27T19:23:16.351Z,8.85
2022-11-27T19:25:51.669Z,8.00
2022-11-27T19:28:23.104Z,6.30
2022-11-27T19:30:51.384Z,7.75
2022-11-27T19:33:30.126Z,7.30
2022-11-27T19:36:11.241Z,7.50
2022-11-27T19:38:41.546Z,8.05
2022-11-27T19:41:18.320Z,6.90
2022-11-27T19:43:51.020Z,8.85
2022-11-27T19:46:23.086Z,8.45
2022-11-27T19:48:54.951Z,8.65
2022-11-27T19:51:23.897Z,5.95
2022-11-27T19:53:52.335Z,6.35
2022-11-27T19:56:22.658Z,6.43
2022-11-27T19:58:51.237Z,7.40
2022-11-27T20:01:23.208Z,7.95
2022-11-27T20:03:52.425Z,8.20
2022-11-27T20:06:26.156Z,7.25
2022-11-27T20:09:02.116Z,7.15
2022-11-27T20:11:34.988Z,6.82
2022-11-27T20:14:14.476Z,9.50
2022-11-27T20:16:45.495Z,7.25
2022-11-27T20:19:16.050Z,7.07
2022-11-27T20:21:44.483Z,8.00
2022-11-27T20:24:18.815Z,8.45
2022-11-27T20:26:47.259Z,9.18
2022-11-27T20:29:16.723Z,6.68
2022-11-27T20:31:48.790Z,5.32
2022-11-27T20:34:24.744Z,6.07
2022-11-27T20:36:55.472Z,5.00
2022-11-27T20:39:24.078Z,4.75
2022-11-27T20:42:00.405Z,6.38
2022-11-27T20:44:29.066Z,5.65
2022-11-27T20:46:57.545Z,5.68
2022-11-27T20:49:28.426Z,5.22
2022-11-27T20:51:57.387Z,4.53
2022-11-27T20:54:27.701Z,4.70
2022-11-27T20:56:55.969Z,5.30
2022-11-27T20:59:24.497Z,5.13
2022-11-27T21:01:57.130Z,4.03
2022-11-27T21:04:27.527Z,4.80
2022-11-27T21:06:57.925Z,3.92
2022-11-27T21:09:29.212Z,5.93
2022-11-27T21:12:01.681Z,4.18
2022-11-27T21:14:30.126Z,4.68
2022-11-27T21:17:04.619Z,4.25
2022-11-27T21:19:36.389Z,3.72
2022-11-27T21:22:09.068Z,3.17
2022-11-27T21:24:43.151Z,3.38
2022-11-27T21:27:14.591Z,2.67
2022-11-27T21:29:44.872Z,3.47
2022-11-27T21:32:15.862Z,2.63
2022-11-27T21:34:44.504Z,3.33
2022-11-27T21:37:15.306Z,2.22
2022-11-27T21:39:45.515Z,3.08
2022-11-27T21:42:13.866Z,2.42
2022-11-27T21:44:45.527Z,2.10
2022-11-27T21:47:13.879Z,2.97
2022-11-27T21:49:45.511Z,1.73
2022-11-27T21:52:16.845Z,2.20
2022-11-27T21:54:46.804Z,2.15
2022-11-27T21:57:16.826Z,2.33
2022-11-27T21:59:45.242Z,1.63
2022-11-27T22:02:16.619Z,1.77
2022-11-27T22:04:45.124Z,2.42
2022-11-27T22:07:14.865Z,3.33
2022-11-27T22:09:43.250Z,4.85
2022-11-27T22:12:14.426Z,3.05
2022-11-27T22:14:45.712Z,3.85
2022-11-27T22:17:14.114Z,4.28
2022-11-27T22:19:46.358Z,6.40
2022-11-27T22:22:15.071Z,7.93
2022-11-27T22:24:43.702Z,2.58
2022-11-27T22:27:15.154Z,2.30
2022-11-27T22:29:48.922Z,2.30
2022-11-27T22:32:19.855Z,2.58
2022-11-27T22:34:48.146Z,2.53
2022-11-27T22:37:18.483Z,1.77
2022-11-27T22:39:46.776Z,2.20
2022-11-27T22:42:15.146Z,2.22
2022-11-27T22:44:43.598Z,1.95
2022-11-27T22:47:14.501Z,2.17
2022-11-27T22:49:45.866Z,3.28
2022-11-27T22:52:14.199Z,2.55
2022-11-27T22:54:42.831Z,3.20
2022-11-27T22:57:11.615Z,2.78
2022-11-27T22:59:39.944Z,3.55
2022-11-27T23:02:08.499Z,5.07
2022-11-27T23:04:38.939Z,4.70
2022-11-27T23:07:07.961Z,5.75
2022-11-27T23:09:36.427Z,4.30
2022-11-27T23:12:05.403Z,5.13
2022-11-27T23:14:33.716Z,5.60
2022-11-27T23:17:05.245Z,6.90
2022-11-27T23:19:36.432Z,6.63
2022-11-27T23:22:09.433Z,5.00
2022-11-27T23:24:37.707Z,5.60
2022-11-27T23:27:06.002Z,4.55
2022-11-27T23:29:34.445Z,4.97
2022-11-27T23:32:06.108Z,4.63
2022-11-27T23:34:37.114Z,6.03
2022-11-27T23:37:05.436Z,5.55
2022-11-27T23:39:33.862Z,5.00
2022-11-27T23:42:04.487Z,3.33
2022-11-27T23:44:32.835Z,3.58
2022-11-27T23:47:01.701Z,4.20
2022-11-27T23:49:34.797Z,2.65
2022-11-27T23:52:03.065Z,2.58
2022-11-27T23:54:43.734Z,2.05
2022-11-27T23:57:12.269Z,3.08
2022-11-27T23:59:40.499Z,3.63
